sensor_id;sensor_type;location;lat;lon;timestamp;P1;durP1;ratioP1;P2;durP2;ratioP2
71042;SDS011;58696;52.134;5.500;2023-07-16T00:00:19;8.20;;;1.60;;
71042;SDS011;58696;52.134;5.500;2023-07-16T00:02:50;6.68;;;1.88;;
71042;SDS011;58696;52.134;5.500;2023-07-16T00:05:16;6.35;;;1.63;;
71042;SDS011;58696;52.134;5.500;2023-07-16T00:07:43;4.50;;;1.80;;
71042;SDS011;58696;52.134;5.500;2023-07-16T00:10:10;6.63;;;1.70;;
71042;SDS011;58696;52.134;5.500;2023-07-16T00:12:37;9.02;;;1.92;;
71042;SDS011;58696;52.134;5.500;2023-07-16T00:15:05;5.82;;;2.17;;
71042;SDS011;58696;52.134;5.500;2023-07-16T00:17:35;5.60;;;2.00;;
71042;SDS011;58696;52.134;5.500;2023-07-16T00:20:04;5.45;;;2.22;;
71042;SDS011;58696;52.134;5.500;2023-07-16T00:22:35;11.75;;;3.28;;
71042;SDS011;58696;52.134;5.500;2023-07-16T00:25:05;9.25;;;3.13;;
71042;SDS011;58696;52.134;5.500;2023-07-16T00:27:33;12.13;;;3.60;;
71042;SDS011;58696;52.134;5.500;2023-07-16T00:30:01;11.90;;;3.50;;
71042;SDS011;58696;52.134;5.500;2023-07-16T00:32:30;4.85;;;2.50;;
71042;SDS011;58696;52.134;5.500;2023-07-16T00:34:59;5.70;;;2.05;;
71042;SDS011;58696;52.134;5.500;2023-07-16T00:37:26;9.07;;;2.08;;
71042;SDS011;58696;52.134;5.500;2023-07-16T00:39:54;6.40;;;1.88;;
71042;SDS011;58696;52.134;5.500;2023-07-16T00:44:47;8.70;;;1.90;;
71042;SDS011;58696;52.134;5.500;2023-07-16T00:47:21;8.00;;;2.08;;
71042;SDS011;58696;52.134;5.500;2023-07-16T00:49:48;10.20;;;2.00;;
71042;SDS011;58696;52.134;5.500;2023-07-16T00:52:18;9.50;;;2.15;;
71042;SDS011;58696;52.134;5.500;2023-07-16T00:54:49;4.68;;;2.08;;
71042;SDS011;58696;52.134;5.500;2023-07-16T00:57:16;8.88;;;2.38;;
71042;SDS011;58696;52.134;5.500;2023-07-16T00:59:44;6.22;;;1.63;;
71042;SDS011;58696;52.134;5.500;2023-07-16T01:02:13;4.78;;;2.00;;
71042;SDS011;58696;52.134;5.500;2023-07-16T01:04:44;4.30;;;1.70;;
71042;SDS011;58696;52.134;5.500;2023-07-16T01:07:13;4.38;;;1.92;;
71042;SDS011;58696;52.134;5.500;2023-07-16T01:09:50;7.07;;;2.00;;
71042;SDS011;58696;52.134;5.500;2023-07-16T01:12:19;5.43;;;1.52;;
71042;SDS011;58696;52.134;5.500;2023-07-16T01:14:48;6.88;;;2.22;;
71042;SDS011;58696;52.134;5.500;2023-07-16T01:17:17;7.10;;;1.90;;
71042;SDS011;58696;52.134;5.500;2023-07-16T01:19:44;7.72;;;2.30;;
71042;SDS011;58696;52.134;5.500;2023-07-16T01:30:09;6.57;;;2.20;;
71042;SDS011;58696;52.134;5.500;2023-07-16T01:32:41;7.68;;;2.20;;
71042;SDS011;58696;52.134;5.500;2023-07-16T01:35:12;9.32;;;2.50;;
71042;SDS011;58696;52.134;5.500;2023-07-16T01:37:41;4.75;;;1.83;;
71042;SDS011;58696;52.134;5.500;2023-07-16T01:40:08;5.97;;;2.30;;
71042;SDS011;58696;52.134;5.500;2023-07-16T01:42:38;6.45;;;2.20;;
71042;SDS011;58696;52.134;5.500;2023-07-16T01:45:06;7.80;;;2.47;;
71042;SDS011;58696;52.134;5.500;2023-07-16T01:50:25;5.80;;;2.00;;
71042;SDS011;58696;52.134;5.500;2023-07-16T01:52:57;4.65;;;2.03;;
71042;SDS011;58696;52.134;5.500;2023-07-16T01:55:23;5.45;;;1.95;;
71042;SDS011;58696;52.134;5.500;2023-07-16T01:57:50;6.53;;;2.03;;
71042;SDS011;58696;52.134;5.500;2023-07-16T02:00:16;5.32;;;2.30;;
71042;SDS011;58696;52.134;5.500;2023-07-16T02:02:46;7.95;;;2.30;;
71042;SDS011;58696;52.134;5.500;2023-07-16T02:05:18;5.85;;;2.17;;
71042;SDS011;58696;52.134;5.500;2023-07-16T02:07:44;5.85;;;2.30;;
71042;SDS011;58696;52.134;5.500;2023-07-16T02:10:16;12.65;;;2.30;;
71042;SDS011;58696;52.134;5.500;2023-07-16T02:12:43;6.03;;;2.53;;
71042;SDS011;58696;52.134;5.500;2023-07-16T02:15:10;4.43;;;2.28;;
71042;SDS011;58696;52.134;5.500;2023-07-16T02:17:36;7.45;;;2.53;;
71042;SDS011;58696;52.134;5.500;2023-07-16T02:20:06;7.15;;;2.75;;
71042;SDS011;58696;52.134;5.500;2023-07-16T02:22:39;8.85;;;3.28;;
71042;SDS011;58696;52.134;5.500;2023-07-16T02:25:06;9.90;;;2.25;;
71042;SDS011;58696;52.134;5.500;2023-07-16T02:27:33;6.10;;;2.17;;
71042;SDS011;58696;52.134;5.500;2023-07-16T02:30:02;8.90;;;2.60;;
71042;SDS011;58696;52.134;5.500;2023-07-16T02:32:34;8.23;;;2.60;;
71042;SDS011;58696;52.134;5.500;2023-07-16T02:35:01;8.15;;;2.72;;
71042;SDS011;58696;52.134;5.500;2023-07-16T02:37:29;5.50;;;2.40;;
71042;SDS011;58696;52.134;5.500;2023-07-16T02:39:58;8.45;;;2.47;;
71042;SDS011;58696;52.134;5.500;2023-07-16T02:42:27;9.60;;;2.78;;
71042;SDS011;58696;52.134;5.500;2023-07-16T02:44:53;7.00;;;2.25;;
71042;SDS011;58696;52.134;5.500;2023-07-16T02:47:20;11.67;;;2.90;;
71042;SDS011;58696;52.134;5.500;2023-07-16T02:49:50;6.78;;;2.28;;
71042;SDS011;58696;52.134;5.500;2023-07-16T02:52:18;5.88;;;2.85;;
71042;SDS011;58696;52.134;5.500;2023-07-16T02:54:45;10.02;;;3.13;;
71042;SDS011;58696;52.134;5.500;2023-07-16T02:57:12;8.57;;;2.60;;
71042;SDS011;58696;52.134;5.500;2023-07-16T02:59:44;7.32;;;2.53;;
71042;SDS011;58696;52.134;5.500;2023-07-16T03:02:18;10.80;;;3.17;;
71042;SDS011;58696;52.134;5.500;2023-07-16T03:04:44;8.90;;;2.40;;
71042;SDS011;58696;52.134;5.500;2023-07-16T03:07:11;8.25;;;2.65;;
71042;SDS011;58696;52.134;5.500;2023-07-16T03:09:40;9.82;;;2.83;;
71042;SDS011;58696;52.134;5.500;2023-07-16T03:12:07;8.02;;;2.38;;
71042;SDS011;58696;52.134;5.500;2023-07-16T03:14:34;7.07;;;2.60;;
71042;SDS011;58696;52.134;5.500;2023-07-16T03:17:04;7.18;;;2.95;;
71042;SDS011;58696;52.134;5.500;2023-07-16T03:19:33;5.85;;;2.13;;
71042;SDS011;58696;52.134;5.500;2023-07-16T03:22:01;6.38;;;2.30;;
71042;SDS011;58696;52.134;5.500;2023-07-16T03:24:28;6.22;;;2.22;;
71042;SDS011;58696;52.134;5.500;2023-07-16T03:26:55;8.40;;;2.60;;
71042;SDS011;58696;52.134;5.500;2023-07-16T03:29:43;6.93;;;2.67;;
71042;SDS011;58696;52.134;5.500;2023-07-16T03:34:36;6.47;;;2.40;;
71042;SDS011;58696;52.134;5.500;2023-07-16T03:37:02;5.85;;;2.92;;
71042;SDS011;58696;52.134;5.500;2023-07-16T03:39:34;9.25;;;2.63;;
71042;SDS011;58696;52.134;5.500;2023-07-16T03:42:00;8.15;;;2.42;;
71042;SDS011;58696;52.134;5.500;2023-07-16T03:44:29;8.75;;;2.75;;
71042;SDS011;58696;52.134;5.500;2023-07-16T03:46:59;8.23;;;2.63;;
71042;SDS011;58696;52.134;5.500;2023-07-16T03:49:25;7.07;;;2.65;;
71042;SDS011;58696;52.134;5.500;2023-07-16T03:51:55;8.10;;;2.13;;
71042;SDS011;58696;52.134;5.500;2023-07-16T03:54:22;6.25;;;2.42;;
71042;SDS011;58696;52.134;5.500;2023-07-16T03:56:48;4.53;;;2.33;;
71042;SDS011;58696;52.134;5.500;2023-07-16T03:59:17;12.05;;;3.17;;
71042;SDS011;58696;52.134;5.500;2023-07-16T04:01:46;7.05;;;2.40;;
71042;SDS011;58696;52.134;5.500;2023-07-16T04:04:13;4.93;;;2.40;;
71042;SDS011;58696;52.134;5.500;2023-07-16T04:06:42;6.90;;;2.40;;
71042;SDS011;58696;52.134;5.500;2023-07-16T04:09:08;19.23;;;2.58;;
71042;SDS011;58696;52.134;5.500;2023-07-16T04:11:35;6.30;;;2.30;;
71042;SDS011;58696;52.134;5.500;2023-07-16T04:14:07;6.57;;;2.65;;
71042;SDS011;58696;52.134;5.500;2023-07-16T04:16:38;8.75;;;2.55;;
71042;SDS011;58696;52.134;5.500;2023-07-16T04:19:04;7.32;;;2.70;;
71042;SDS011;58696;52.134;5.500;2023-07-16T04:21:32;4.97;;;2.70;;
71042;SDS011;58696;52.134;5.500;2023-07-16T04:24:04;6.68;;;2.58;;
71042;SDS011;58696;52.134;5.500;2023-07-16T04:26:32;9.80;;;2.55;;
71042;SDS011;58696;52.134;5.500;2023-07-16T04:28:58;8.23;;;2.80;;
71042;SDS011;58696;52.134;5.500;2023-07-16T04:31:27;7.93;;;3.25;;
71042;SDS011;58696;52.134;5.500;2023-07-16T04:33:57;8.57;;;2.83;;
71042;SDS011;58696;52.134;5.500;2023-07-16T04:36:25;11.38;;;3.05;;
71042;SDS011;58696;52.134;5.500;2023-07-16T04:38:54;5.82;;;2.85;;
71042;SDS011;58696;52.134;5.500;2023-07-16T04:41:21;9.10;;;2.95;;
71042;SDS011;58696;52.134;5.500;2023-07-16T04:43:52;8.27;;;3.35;;
71042;SDS011;58696;52.134;5.500;2023-07-16T04:46:19;12.63;;;3.20;;
71042;SDS011;58696;52.134;5.500;2023-07-16T04:48:48;7.07;;;2.80;;
71042;SDS011;58696;52.134;5.500;2023-07-16T04:51:17;12.80;;;3.05;;
71042;SDS011;58696;52.134;5.500;2023-07-16T04:53:44;8.10;;;2.63;;
71042;SDS011;58696;52.134;5.500;2023-07-16T04:56:11;7.25;;;2.95;;
71042;SDS011;58696;52.134;5.500;2023-07-16T04:58:44;5.57;;;2.80;;
71042;SDS011;58696;52.134;5.500;2023-07-16T05:01:10;8.05;;;2.72;;
71042;SDS011;58696;52.134;5.500;2023-07-16T05:03:40;12.00;;;2.80;;
71042;SDS011;58696;52.134;5.500;2023-07-16T05:06:09;5.50;;;3.15;;
71042;SDS011;58696;52.134;5.500;2023-07-16T05:08:35;14.95;;;2.83;;
71042;SDS011;58696;52.134;5.500;2023-07-16T05:11:02;8.90;;;3.03;;
71042;SDS011;58696;52.134;5.500;2023-07-16T05:13:28;8.55;;;3.28;;
71042;SDS011;58696;52.134;5.500;2023-07-16T05:18:25;11.20;;;3.00;;
71042;SDS011;58696;52.134;5.500;2023-07-16T05:20:54;7.78;;;3.40;;
71042;SDS011;58696;52.134;5.500;2023-07-16T05:23:23;14.55;;;3.20;;
71042;SDS011;58696;52.134;5.500;2023-07-16T05:25:55;7.53;;;2.72;;
71042;SDS011;58696;52.134;5.500;2023-07-16T05:28:24;9.48;;;2.97;;
71042;SDS011;58696;52.134;5.500;2023-07-16T05:30:58;9.83;;;2.90;;
71042;SDS011;58696;52.134;5.500;2023-07-16T05:33:25;7.80;;;3.28;;
71042;SDS011;58696;52.134;5.500;2023-07-16T05:35:59;8.95;;;2.85;;
71042;SDS011;58696;52.134;5.500;2023-07-16T05:38:25;7.95;;;3.42;;
71042;SDS011;58696;52.134;5.500;2023-07-16T05:40:54;6.78;;;2.95;;
71042;SDS011;58696;52.134;5.500;2023-07-16T05:43:31;8.23;;;3.10;;
71042;SDS011;58696;52.134;5.500;2023-07-16T05:46:00;7.65;;;3.38;;
71042;SDS011;58696;52.134;5.500;2023-07-16T05:48:26;9.65;;;3.10;;
71042;SDS011;58696;52.134;5.500;2023-07-16T05:50:55;5.68;;;3.60;;
71042;SDS011;58696;52.134;5.500;2023-07-16T05:53:22;8.63;;;3.35;;
71042;SDS011;58696;52.134;5.500;2023-07-16T05:55:51;7.20;;;3.10;;
71042;SDS011;58696;52.134;5.500;2023-07-16T05:58:18;6.30;;;3.42;;
71042;SDS011;58696;52.134;5.500;2023-07-16T06:00:48;9.23;;;3.00;;
71042;SDS011;58696;52.134;5.500;2023-07-16T06:03:17;7.43;;;2.80;;
71042;SDS011;58696;52.134;5.500;2023-07-16T06:05:46;7.40;;;3.60;;
71042;SDS011;58696;52.134;5.500;2023-07-16T06:08:12;6.53;;;3.20;;
71042;SDS011;58696;52.134;5.500;2023-07-16T06:10:39;7.17;;;3.37;;
71042;SDS011;58696;52.134;5.500;2023-07-16T06:13:05;8.97;;;3.47;;
71042;SDS011;58696;52.134;5.500;2023-07-16T06:15:32;7.23;;;3.57;;
71042;SDS011;58696;52.134;5.500;2023-07-16T06:18:02;7.88;;;3.45;;
71042;SDS011;58696;52.134;5.500;2023-07-16T06:20:33;5.38;;;3.10;;
71042;SDS011;58696;52.134;5.500;2023-07-16T06:23:03;8.65;;;3.40;;
71042;SDS011;58696;52.134;5.500;2023-07-16T06:25:30;7.25;;;3.13;;
71042;SDS011;58696;52.134;5.500;2023-07-16T06:27:59;14.50;;;3.43;;
71042;SDS011;58696;52.134;5.500;2023-07-16T06:30:26;5.80;;;3.05;;
71042;SDS011;58696;52.134;5.500;2023-07-16T06:32:57;6.97;;;3.72;;
71042;SDS011;58696;52.134;5.500;2023-07-16T06:35:29;9.70;;;3.67;;
71042;SDS011;58696;52.134;5.500;2023-07-16T06:37:55;9.88;;;3.72;;
71042;SDS011;58696;52.134;5.500;2023-07-16T06:40:23;3.63;;;2.90;;
71042;SDS011;58696;52.134;5.500;2023-07-16T06:42:57;7.38;;;2.95;;
71042;SDS011;58696;52.134;5.500;2023-07-16T06:45:28;6.30;;;3.40;;
71042;SDS011;58696;52.134;5.500;2023-07-16T06:48:00;6.33;;;3.43;;
71042;SDS011;58696;52.134;5.500;2023-07-16T06:50:31;8.57;;;3.40;;
71042;SDS011;58696;52.134;5.500;2023-07-16T06:52:59;5.15;;;2.97;;
71042;SDS011;58696;52.134;5.500;2023-07-16T06:55:28;8.20;;;3.58;;
71042;SDS011;58696;52.134;5.500;2023-07-16T06:57:57;8.00;;;3.67;;
71042;SDS011;58696;52.134;5.500;2023-07-16T07:00:26;7.85;;;3.03;;
71042;SDS011;58696;52.134;5.500;2023-07-16T07:02:55;8.27;;;4.15;;
71042;SDS011;58696;52.134;5.500;2023-07-16T07:05:22;7.13;;;3.35;;
71042;SDS011;58696;52.134;5.500;2023-07-16T07:07:49;8.90;;;3.47;;
71042;SDS011;58696;52.134;5.500;2023-07-16T07:10:18;9.48;;;3.50;;
71042;SDS011;58696;52.134;5.500;2023-07-16T07:12:50;9.05;;;3.30;;
71042;SDS011;58696;52.134;5.500;2023-07-16T07:15:19;11.23;;;3.50;;
71042;SDS011;58696;52.134;5.500;2023-07-16T07:17:50;6.90;;;3.35;;
71042;SDS011;58696;52.134;5.500;2023-07-16T07:20:20;9.98;;;3.70;;
71042;SDS011;58696;52.134;5.500;2023-07-16T07:22:47;8.03;;;3.63;;
71042;SDS011;58696;52.134;5.500;2023-07-16T07:25:13;9.32;;;4.13;;
71042;SDS011;58696;52.134;5.500;2023-07-16T07:27:40;8.52;;;3.70;;
71042;SDS011;58696;52.134;5.500;2023-07-16T07:30:06;6.70;;;3.33;;
71042;SDS011;58696;52.134;5.500;2023-07-16T07:32:36;7.38;;;3.40;;
71042;SDS011;58696;52.134;5.500;2023-07-16T07:35:09;11.02;;;3.38;;
71042;SDS011;58696;52.134;5.500;2023-07-16T07:37:38;6.43;;;3.47;;
71042;SDS011;58696;52.134;5.500;2023-07-16T07:40:09;8.35;;;3.40;;
71042;SDS011;58696;52.134;5.500;2023-07-16T07:42:37;10.77;;;3.40;;
71042;SDS011;58696;52.134;5.500;2023-07-16T07:45:03;8.07;;;3.50;;
71042;SDS011;58696;52.134;5.500;2023-07-16T07:47:32;9.45;;;3.53;;
71042;SDS011;58696;52.134;5.500;2023-07-16T07:50:02;8.40;;;3.50;;
71042;SDS011;58696;52.134;5.500;2023-07-16T07:52:28;8.00;;;3.67;;
71042;SDS011;58696;52.134;5.500;2023-07-16T07:54:55;8.80;;;3.73;;
71042;SDS011;58696;52.134;5.500;2023-07-16T07:57:23;7.20;;;3.57;;
71042;SDS011;58696;52.134;5.500;2023-07-16T07:59:50;12.43;;;3.70;;
71042;SDS011;58696;52.134;5.500;2023-07-16T08:02:23;7.30;;;3.60;;
71042;SDS011;58696;52.134;5.500;2023-07-16T08:04:51;18.60;;;4.45;;
71042;SDS011;58696;52.134;5.500;2023-07-16T08:07:21;6.63;;;3.70;;
71042;SDS011;58696;52.134;5.500;2023-07-16T08:09:52;8.88;;;4.20;;
71042;SDS011;58696;52.134;5.500;2023-07-16T08:12:19;5.90;;;3.47;;
71042;SDS011;58696;52.134;5.500;2023-07-16T08:14:45;6.20;;;4.00;;
71042;SDS011;58696;52.134;5.500;2023-07-16T08:17:16;11.35;;;3.95;;
71042;SDS011;58696;52.134;5.500;2023-07-16T08:19:51;10.30;;;3.80;;
71042;SDS011;58696;52.134;5.500;2023-07-16T08:22:21;12.05;;;4.00;;
71042;SDS011;58696;52.134;5.500;2023-07-16T08:24:51;9.48;;;4.03;;
71042;SDS011;58696;52.134;5.500;2023-07-16T08:27:18;5.57;;;3.33;;
71042;SDS011;58696;52.134;5.500;2023-07-16T08:29:46;8.95;;;3.85;;
71042;SDS011;58696;52.134;5.500;2023-07-16T08:32:15;8.70;;;4.03;;
71042;SDS011;58696;52.134;5.500;2023-07-16T08:34:41;5.88;;;3.85;;
71042;SDS011;58696;52.134;5.500;2023-07-16T08:37:08;9.48;;;3.85;;
71042;SDS011;58696;52.134;5.500;2023-07-16T08:39:34;9.90;;;4.15;;
71042;SDS011;58696;52.134;5.500;2023-07-16T08:42:01;11.13;;;3.88;;
71042;SDS011;58696;52.134;5.500;2023-07-16T08:44:28;11.43;;;4.25;;
71042;SDS011;58696;52.134;5.500;2023-07-16T08:46:55;12.13;;;4.07;;
71042;SDS011;58696;52.134;5.500;2023-07-16T08:49:24;9.30;;;3.65;;
71042;SDS011;58696;52.134;5.500;2023-07-16T08:54:20;10.65;;;3.53;;
71042;SDS011;58696;52.134;5.500;2023-07-16T08:56:48;7.93;;;3.67;;
71042;SDS011;58696;52.134;5.500;2023-07-16T08:59:16;6.05;;;3.15;;
71042;SDS011;58696;52.134;5.500;2023-07-16T09:01:50;11.25;;;3.80;;
71042;SDS011;58696;52.134;5.500;2023-07-16T09:04:17;7.25;;;3.85;;
71042;SDS011;58696;52.134;5.500;2023-07-16T09:06:44;9.52;;;3.75;;
71042;SDS011;58696;52.134;5.500;2023-07-16T09:09:23;6.95;;;3.80;;
71042;SDS011;58696;52.134;5.500;2023-07-16T09:11:53;12.77;;;4.30;;
71042;SDS011;58696;52.134;5.500;2023-07-16T09:14:22;10.50;;;5.10;;
71042;SDS011;58696;52.134;5.500;2023-07-16T09:16:52;10.00;;;4.35;;
71042;SDS011;58696;52.134;5.500;2023-07-16T09:19:21;6.45;;;3.70;;
71042;SDS011;58696;52.134;5.500;2023-07-16T09:21:54;10.05;;;3.83;;
71042;SDS011;58696;52.134;5.500;2023-07-16T09:24:23;12.50;;;3.72;;
71042;SDS011;58696;52.134;5.500;2023-07-16T09:26:53;10.03;;;3.50;;
71042;SDS011;58696;52.134;5.500;2023-07-16T09:29:24;11.55;;;3.92;;
71042;SDS011;58696;52.134;5.500;2023-07-16T09:32:00;10.05;;;4.40;;
71042;SDS011;58696;52.134;5.500;2023-07-16T09:34:31;11.02;;;3.97;;
71042;SDS011;58696;52.134;5.500;2023-07-16T09:36:59;7.82;;;3.67;;
71042;SDS011;58696;52.134;5.500;2023-07-16T09:39:29;10.85;;;4.80;;
71042;SDS011;58696;52.134;5.500;2023-07-16T09:41:58;9.38;;;3.70;;
71042;SDS011;58696;52.134;5.500;2023-07-16T09:44:29;9.20;;;4.15;;
71042;SDS011;58696;52.134;5.500;2023-07-16T09:46:58;9.25;;;4.07;;
71042;SDS011;58696;52.134;5.500;2023-07-16T09:49:28;8.63;;;4.07;;
71042;SDS011;58696;52.134;5.500;2023-07-16T09:51:57;7.65;;;3.72;;
71042;SDS011;58696;52.134;5.500;2023-07-16T09:54:27;7.47;;;3.45;;
71042;SDS011;58696;52.134;5.500;2023-07-16T09:56:58;7.72;;;3.55;;
71042;SDS011;58696;52.134;5.500;2023-07-16T09:59:28;5.65;;;3.47;;
71042;SDS011;58696;52.134;5.500;2023-07-16T10:01:56;7.97;;;3.75;;
71042;SDS011;58696;52.134;5.500;2023-07-16T10:04:24;6.72;;;3.42;;
71042;SDS011;58696;52.134;5.500;2023-07-16T10:14:42;8.68;;;3.70;;
71042;SDS011;58696;52.134;5.500;2023-07-16T10:17:23;10.43;;;3.95;;
71042;SDS011;58696;52.134;5.500;2023-07-16T10:22:58;9.65;;;3.63;;
71042;SDS011;58696;52.134;5.500;2023-07-16T10:27:44;6.05;;;3.75;;
71042;SDS011;58696;52.134;5.500;2023-07-16T10:30:15;7.82;;;3.95;;
71042;SDS011;58696;52.134;5.500;2023-07-16T10:32:42;10.07;;;3.78;;
71042;SDS011;58696;52.134;5.500;2023-07-16T10:35:15;7.88;;;3.80;;
71042;SDS011;58696;52.134;5.500;2023-07-16T10:37:41;5.80;;;3.40;;
71042;SDS011;58696;52.134;5.500;2023-07-16T10:40:11;8.38;;;3.30;;
71042;SDS011;58696;52.134;5.500;2023-07-16T10:42:40;12.38;;;3.90;;
71042;SDS011;58696;52.134;5.500;2023-07-16T10:45:10;13.80;;;3.60;;
71042;SDS011;58696;52.134;5.500;2023-07-16T10:47:40;6.57;;;3.15;;
71042;SDS011;58696;52.134;5.500;2023-07-16T10:50:18;8.52;;;3.50;;
71042;SDS011;58696;52.134;5.500;2023-07-16T10:52:51;11.48;;;3.70;;
71042;SDS011;58696;52.134;5.500;2023-07-16T10:55:20;6.32;;;3.17;;
71042;SDS011;58696;52.134;5.500;2023-07-16T10:57:49;7.70;;;3.90;;
71042;SDS011;58696;52.134;5.500;2023-07-16T11:00:20;7.82;;;3.53;;
71042;SDS011;58696;52.134;5.500;2023-07-16T11:02:50;8.70;;;3.22;;
71042;SDS011;58696;52.134;5.500;2023-07-16T11:05:18;13.18;;;3.67;;
71042;SDS011;58696;52.134;5.500;2023-07-16T11:07:51;9.75;;;3.92;;
71042;SDS011;58696;52.134;5.500;2023-07-16T11:10:24;9.30;;;3.83;;
71042;SDS011;58696;52.134;5.500;2023-07-16T11:12:54;9.25;;;3.60;;
71042;SDS011;58696;52.134;5.500;2023-07-16T11:15:33;8.87;;;3.10;;
71042;SDS011;58696;52.134;5.500;2023-07-16T11:18:03;9.32;;;4.47;;
71042;SDS011;58696;52.134;5.500;2023-07-16T11:20:31;5.65;;;3.60;;
71042;SDS011;58696;52.134;5.500;2023-07-16T11:23:00;9.15;;;3.60;;
71042;SDS011;58696;52.134;5.500;2023-07-16T11:25:32;18.15;;;3.75;;
71042;SDS011;58696;52.134;5.500;2023-07-16T11:28:00;4.43;;;3.08;;
71042;SDS011;58696;52.134;5.500;2023-07-16T11:30:30;7.07;;;3.40;;
71042;SDS011;58696;52.134;5.500;2023-07-16T11:32:57;8.57;;;3.85;;
71042;SDS011;58696;52.134;5.500;2023-07-16T11:35:26;6.03;;;3.45;;
71042;SDS011;58696;52.134;5.500;2023-07-16T11:37:54;7.30;;;2.70;;
71042;SDS011;58696;52.134;5.500;2023-07-16T11:40:23;7.35;;;3.58;;
71042;SDS011;58696;52.134;5.500;2023-07-16T11:42:53;7.40;;;2.97;;
71042;SDS011;58696;52.134;5.500;2023-07-16T11:45:24;5.57;;;3.20;;
71042;SDS011;58696;52.134;5.500;2023-07-16T11:47:53;4.45;;;2.70;;
71042;SDS011;58696;52.134;5.500;2023-07-16T11:50:26;8.15;;;3.40;;
71042;SDS011;58696;52.134;5.500;2023-07-16T11:52:53;5.47;;;3.28;;
71042;SDS011;58696;52.134;5.500;2023-07-16T11:55:22;5.22;;;2.58;;
71042;SDS011;58696;52.134;5.500;2023-07-16T11:57:51;4.82;;;2.65;;
71042;SDS011;58696;52.134;5.500;2023-07-16T12:00:23;7.82;;;2.40;;
71042;SDS011;58696;52.134;5.500;2023-07-16T12:02:57;4.22;;;1.95;;
71042;SDS011;58696;52.134;5.500;2023-07-16T12:05:26;13.23;;;2.50;;
71042;SDS011;58696;52.134;5.500;2023-07-16T12:08:16;7.88;;;2.47;;
71042;SDS011;58696;52.134;5.500;2023-07-16T12:10:47;3.58;;;2.30;;
71042;SDS011;58696;52.134;5.500;2023-07-16T12:13:16;3.25;;;1.85;;
71042;SDS011;58696;52.134;5.500;2023-07-16T12:15:44;3.13;;;1.58;;
71042;SDS011;58696;52.134;5.500;2023-07-16T12:18:12;3.53;;;1.80;;
71042;SDS011;58696;52.134;5.500;2023-07-16T12:20:41;3.15;;;1.90;;
71042;SDS011;58696;52.134;5.500;2023-07-16T12:23:10;3.08;;;1.85;;
71042;SDS011;58696;52.134;5.500;2023-07-16T12:25:39;5.20;;;1.85;;
71042;SDS011;58696;52.134;5.500;2023-07-16T12:28:09;3.42;;;1.63;;
71042;SDS011;58696;52.134;5.500;2023-07-16T12:30:36;1.97;;;1.50;;
71042;SDS011;58696;52.134;5.500;2023-07-16T12:33:05;3.78;;;1.85;;
71042;SDS011;58696;52.134;5.500;2023-07-16T12:35:31;3.90;;;1.97;;
71042;SDS011;58696;52.134;5.500;2023-07-16T12:37:58;3.17;;;1.90;;
71042;SDS011;58696;52.134;5.500;2023-07-16T12:40:25;5.07;;;2.03;;
71042;SDS011;58696;52.134;5.500;2023-07-16T12:42:57;6.97;;;1.85;;
71042;SDS011;58696;52.134;5.500;2023-07-16T12:45:26;10.27;;;2.42;;
71042;SDS011;58696;52.134;5.500;2023-07-16T12:47:55;7.97;;;2.03;;
71042;SDS011;58696;52.134;5.500;2023-07-16T12:50:25;6.35;;;2.05;;
71042;SDS011;58696;52.134;5.500;2023-07-16T12:52:56;6.60;;;2.05;;
71042;SDS011;58696;52.134;5.500;2023-07-16T12:55:23;7.35;;;1.85;;
71042;SDS011;58696;52.134;5.500;2023-07-16T12:57:50;4.30;;;2.75;;
71042;SDS011;58696;52.134;5.500;2023-07-16T13:00:17;6.32;;;3.28;;
71042;SDS011;58696;52.134;5.500;2023-07-16T13:02:45;2.70;;;2.22;;
71042;SDS011;58696;52.134;5.500;2023-07-16T13:05:12;4.27;;;1.87;;
71042;SDS011;58696;52.134;5.500;2023-07-16T13:07:39;4.63;;;2.30;;
71042;SDS011;58696;52.134;5.500;2023-07-16T13:10:08;4.95;;;1.95;;
71042;SDS011;58696;52.134;5.500;2023-07-16T13:12:51;7.65;;;1.73;;
71042;SDS011;58696;52.134;5.500;2023-07-16T13:15:18;3.45;;;1.55;;
71042;SDS011;58696;52.134;5.500;2023-07-16T13:17:48;3.47;;;2.22;;
71042;SDS011;58696;52.134;5.500;2023-07-16T13:20:15;3.90;;;1.67;;
71042;SDS011;58696;52.134;5.500;2023-07-16T13:22:44;3.30;;;1.33;;
71042;SDS011;58696;52.134;5.500;2023-07-16T13:25:13;6.90;;;1.80;;
71042;SDS011;58696;52.134;5.500;2023-07-16T13:27:40;3.45;;;1.20;;
71042;SDS011;58696;52.134;5.500;2023-07-16T13:30:09;8.15;;;1.88;;
71042;SDS011;58696;52.134;5.500;2023-07-16T13:32:35;8.48;;;1.80;;
71042;SDS011;58696;52.134;5.500;2023-07-16T13:35:06;4.85;;;1.75;;
71042;SDS011;58696;52.134;5.500;2023-07-16T13:37:33;5.30;;;2.03;;
71042;SDS011;58696;52.134;5.500;2023-07-16T13:39:59;4.00;;;1.67;;
71042;SDS011;58696;52.134;5.500;2023-07-16T13:42:31;2.97;;;1.25;;
71042;SDS011;58696;52.134;5.500;2023-07-16T13:45:02;5.43;;;1.52;;
71042;SDS011;58696;52.134;5.500;2023-07-16T13:47:29;5.82;;;2.60;;
71042;SDS011;58696;52.134;5.500;2023-07-16T13:49:56;11.43;;;3.77;;
71042;SDS011;58696;52.134;5.500;2023-07-16T13:52:25;5.40;;;1.80;;
71042;SDS011;58696;52.134;5.500;2023-07-16T13:54:51;8.23;;;2.17;;
71042;SDS011;58696;52.134;5.500;2023-07-16T13:57:18;3.13;;;1.80;;
71042;SDS011;58696;52.134;5.500;2023-07-16T13:59:45;9.50;;;4.87;;
71042;SDS011;58696;52.134;5.500;2023-07-16T14:02:11;4.83;;;2.00;;
71042;SDS011;58696;52.134;5.500;2023-07-16T14:04:40;5.20;;;2.00;;
71042;SDS011;58696;52.134;5.500;2023-07-16T14:07:15;3.60;;;1.70;;
71042;SDS011;58696;52.134;5.500;2023-07-16T14:09:41;7.88;;;1.88;;
71042;SDS011;58696;52.134;5.500;2023-07-16T14:12:08;4.93;;;1.43;;
71042;SDS011;58696;52.134;5.500;2023-07-16T14:14:34;2.67;;;1.37;;
71042;SDS011;58696;52.134;5.500;2023-07-16T14:17:01;6.50;;;1.40;;
71042;SDS011;58696;52.134;5.500;2023-07-16T14:19:28;3.17;;;1.27;;
71042;SDS011;58696;52.134;5.500;2023-07-16T14:21:57;3.28;;;1.55;;
71042;SDS011;58696;52.134;5.500;2023-07-16T14:24:26;5.07;;;1.38;;
71042;SDS011;58696;52.134;5.500;2023-07-16T14:26:57;2.92;;;1.27;;
71042;SDS011;58696;52.134;5.500;2023-07-16T14:29:26;5.82;;;2.20;;
71042;SDS011;58696;52.134;5.500;2023-07-16T14:31:55;5.40;;;1.23;;
71042;SDS011;58696;52.134;5.500;2023-07-16T14:34:23;4.30;;;1.15;;
71042;SDS011;58696;52.134;5.500;2023-07-16T14:36:49;3.57;;;1.20;;
71042;SDS011;58696;52.134;5.500;2023-07-16T14:39:16;10.63;;;1.60;;
71042;SDS011;58696;52.134;5.500;2023-07-16T14:41:45;3.55;;;1.42;;
71042;SDS011;58696;52.134;5.500;2023-07-16T14:46:38;4.65;;;1.40;;
71042;SDS011;58696;52.134;5.500;2023-07-16T14:49:08;5.30;;;1.25;;
71042;SDS011;58696;52.134;5.500;2023-07-16T14:51:37;7.20;;;1.75;;
71042;SDS011;58696;52.134;5.500;2023-07-16T14:54:09;4.15;;;1.40;;
71042;SDS011;58696;52.134;5.500;2023-07-16T14:56:36;6.13;;;2.35;;
71042;SDS011;58696;52.134;5.500;2023-07-16T14:59:06;4.22;;;1.33;;
71042;SDS011;58696;52.134;5.500;2023-07-16T15:01:32;1.63;;;1.17;;
71042;SDS011;58696;52.134;5.500;2023-07-16T15:04:01;5.30;;;1.75;;
71042;SDS011;58696;52.134;5.500;2023-07-16T15:06:29;6.55;;;1.70;;
71042;SDS011;58696;52.134;5.500;2023-07-16T15:09:01;7.63;;;1.48;;
71042;SDS011;58696;52.134;5.500;2023-07-16T15:11:30;3.83;;;1.58;;
71042;SDS011;58696;52.134;5.500;2023-07-16T15:13:57;7.30;;;1.80;;
71042;SDS011;58696;52.134;5.500;2023-07-16T15:16:23;2.35;;;1.33;;
71042;SDS011;58696;52.134;5.500;2023-07-16T15:18:50;4.20;;;1.40;;
71042;SDS011;58696;52.134;5.500;2023-07-16T15:21:21;2.08;;;1.30;;
71042;SDS011;58696;52.134;5.500;2023-07-16T15:23:47;4.32;;;1.50;;
71042;SDS011;58696;52.134;5.500;2023-07-16T15:26:14;5.20;;;1.60;;
71042;SDS011;58696;52.134;5.500;2023-07-16T15:28:43;4.63;;;1.60;;
71042;SDS011;58696;52.134;5.500;2023-07-16T15:31:11;8.07;;;1.50;;